sensor_id;sensor_type;location;lat;lon;timestamp;P1;durP1;ratioP1;P2;durP2;ratioP2
21751;SDS011;11038;50.940;20.564;2022-09-20T00:00:47;31.60;;;25.13;;
21751;SDS011;11038;50.940;20.564;2022-09-20T00:02:33;29.03;;;23.87;;
21751;SDS011;11038;50.940;20.564;2022-09-20T00:04:05;30.27;;;24.03;;
21751;SDS011;11038;50.940;20.564;2022-09-20T00:05:39;32.13;;;24.77;;
21751;SDS011;11038;50.940;20.564;2022-09-20T00:07:14;33.07;;;25.50;;
21751;SDS011;11038;50.940;20.564;2022-09-20T00:08:47;29.53;;;23.97;;
21751;SDS011;11038;50.940;20.564;2022-09-20T00:10:20;29.73;;;23.60;;
21751;SDS011;11038;50.940;20.564;2022-09-20T00:11:55;33.60;;;23.73;;
21751;SDS011;11038;50.940;20.564;2022-09-20T00:13:27;33.40;;;24.90;;
21751;SDS011;11038;50.940;20.564;2022-09-20T00:15:01;29.37;;;24.13;;
21751;SDS011;11038;50.940;20.564;2022-09-20T00:16:34;31.00;;;24.67;;
21751;SDS011;11038;50.940;20.564;2022-09-20T00:18:11;36.47;;;25.50;;
21751;SDS011;11038;50.940;20.564;2022-09-20T00:19:44;27.80;;;23.13;;
21751;SDS011;11038;50.940;20.564;2022-09-20T00:21:17;28.70;;;23.27;;
21751;SDS011;11038;50.940;20.564;2022-09-20T00:22:51;32.53;;;25.07;;
21751;SDS011;11038;50.940;20.564;2022-09-20T00:24:24;32.50;;;24.83;;
21751;SDS011;11038;50.940;20.564;2022-09-20T00:25:58;30.03;;;23.40;;
21751;SDS011;11038;50.940;20.564;2022-09-20T00:27:32;30.43;;;24.47;;
21751;SDS011;11038;50.940;20.564;2022-09-20T00:29:04;30.50;;;24.03;;
21751;SDS011;11038;50.940;20.564;2022-09-20T00:30:37;32.40;;;25.17;;
21751;SDS011;11038;50.940;20.564;2022-09-20T00:32:09;30.50;;;23.30;;
21751;SDS011;11038;50.940;20.564;2022-09-20T00:33:42;34.07;;;25.43;;
21751;SDS011;11038;50.940;20.564;2022-09-20T00:35:38;31.57;;;24.20;;
21751;SDS011;11038;50.940;20.564;2022-09-20T00:37:14;31.17;;;24.50;;
21751;SDS011;11038;50.940;20.564;2022-09-20T00:38:47;31.40;;;24.33;;
21751;SDS011;11038;50.940;20.564;2022-09-20T00:40:19;29.67;;;24.13;;
21751;SDS011;11038;50.940;20.564;2022-09-20T00:41:54;29.90;;;24.23;;
21751;SDS011;11038;50.940;20.564;2022-09-20T00:43:40;30.43;;;24.17;;
21751;SDS011;11038;50.940;20.564;2022-09-20T00:47:00;36.33;;;25.90;;
21751;SDS011;11038;50.940;20.564;2022-09-20T00:48:33;29.47;;;24.17;;
21751;SDS011;11038;50.940;20.564;2022-09-20T00:52:16;29.33;;;24.03;;
21751;SDS011;11038;50.940;20.564;2022-09-20T00:53:50;29.17;;;24.03;;
21751;SDS011;11038;50.940;20.564;2022-09-20T00:55:29;29.63;;;24.60;;
21751;SDS011;11038;50.940;20.564;2022-09-20T00:57:03;30.27;;;24.23;;
21751;SDS011;11038;50.940;20.564;2022-09-20T00:58:37;34.00;;;25.50;;
21751;SDS011;11038;50.940;20.564;2022-09-20T01:00:17;29.80;;;24.27;;
21751;SDS011;11038;50.940;20.564;2022-09-20T01:01:51;28.43;;;24.47;;
21751;SDS011;11038;50.940;20.564;2022-09-20T01:03:43;30.17;;;25.00;;
21751;SDS011;11038;50.940;20.564;2022-09-20T01:05:17;28.40;;;24.70;;
21751;SDS011;11038;50.940;20.564;2022-09-20T01:06:50;30.13;;;24.80;;
21751;SDS011;11038;50.940;20.564;2022-09-20T01:08:27;31.07;;;23.90;;
21751;SDS011;11038;50.940;20.564;2022-09-20T01:10:00;28.27;;;23.97;;
21751;SDS011;11038;50.940;20.564;2022-09-20T01:11:33;33.00;;;24.20;;
21751;SDS011;11038;50.940;20.564;2022-09-20T01:13:07;34.83;;;26.47;;
21751;SDS011;11038;50.940;20.564;2022-09-20T01:14:40;33.03;;;26.33;;
21751;SDS011;11038;50.940;20.564;2022-09-20T01:16:15;29.63;;;23.80;;
21751;SDS011;11038;50.940;20.564;2022-09-20T01:17:50;30.77;;;23.80;;
21751;SDS011;11038;50.940;20.564;2022-09-20T01:19:35;27.93;;;23.83;;
21751;SDS011;11038;50.940;20.564;2022-09-20T01:21:32;30.80;;;24.50;;
21751;SDS011;11038;50.940;20.564;2022-09-20T01:25:08;32.37;;;24.57;;
21751;SDS011;11038;50.940;20.564;2022-09-20T01:28:06;27.80;;;23.63;;
21751;SDS011;11038;50.940;20.564;2022-09-20T01:29:24;27.00;;;22.90;;
21751;SDS011;11038;50.940;20.564;2022-09-20T01:33:02;28.93;;;22.53;;
21751;SDS011;11038;50.940;20.564;2022-09-20T01:34:53;28.10;;;22.40;;
21751;SDS011;11038;50.940;20.564;2022-09-20T01:36:32;26.43;;;20.87;;
21751;SDS011;11038;50.940;20.564;2022-09-20T01:42:11;27.23;;;20.30;;
21751;SDS011;11038;50.940;20.564;2022-09-20T01:43:52;26.13;;;19.87;;
21751;SDS011;11038;50.940;20.564;2022-09-20T01:45:32;25.60;;;20.80;;
21751;SDS011;11038;50.940;20.564;2022-09-20T01:47:09;23.67;;;19.50;;
21751;SDS011;11038;50.940;20.564;2022-09-20T01:48:55;24.30;;;19.10;;
21751;SDS011;11038;50.940;20.564;2022-09-20T01:55:14;23.27;;;18.87;;
21751;SDS011;11038;50.940;20.564;2022-09-20T01:59:43;23.30;;;18.57;;
21751;SDS011;11038;50.940;20.564;2022-09-20T02:08:29;24.40;;;18.13;;
21751;SDS011;11038;50.940;20.564;2022-09-20T02:12:20;22.10;;;17.93;;
21751;SDS011;11038;50.940;20.564;2022-09-20T02:14:11;22.33;;;17.77;;
21751;SDS011;11038;50.940;20.564;2022-09-20T02:16:44;22.70;;;17.77;;
21751;SDS011;11038;50.940;20.564;2022-09-20T02:20:55;23.17;;;18.20;;
21751;SDS011;11038;50.940;20.564;2022-09-20T02:24:59;23.53;;;18.80;;
21751;SDS011;11038;50.940;20.564;2022-09-20T02:30:42;24.90;;;18.20;;
21751;SDS011;11038;50.940;20.564;2022-09-20T02:32:43;23.60;;;18.87;;
21751;SDS011;11038;50.940;20.564;2022-09-20T02:35:15;23.23;;;18.73;;
21751;SDS011;11038;50.940;20.564;2022-09-20T02:44:47;24.80;;;18.83;;
21751;SDS011;11038;50.940;20.564;2022-09-20T02:48:09;25.07;;;19.23;;
21751;SDS011;11038;50.940;20.564;2022-09-20T02:50:00;21.57;;;18.20;;
21751;SDS011;11038;50.940;20.564;2022-09-20T02:52:02;26.83;;;20.10;;
21751;SDS011;11038;50.940;20.564;2022-09-20T02:54:00;25.40;;;19.97;;
21751;SDS011;11038;50.940;20.564;2022-09-20T02:59:56;24.80;;;19.27;;
21751;SDS011;11038;50.940;20.564;2022-09-20T03:08:55;24.03;;;19.33;;
21751;SDS011;11038;50.940;20.564;2022-09-20T03:11:15;28.57;;;19.40;;
21751;SDS011;11038;50.940;20.564;2022-09-20T03:15:34;24.63;;;19.03;;
21751;SDS011;11038;50.940;20.564;2022-09-20T03:17:37;24.53;;;19.60;;
21751;SDS011;11038;50.940;20.564;2022-09-20T03:19:32;23.97;;;19.70;;
21751;SDS011;11038;50.940;20.564;2022-09-20T03:32:50;29.50;;;22.33;;
21751;SDS011;11038;50.940;20.564;2022-09-20T03:42:35;25.73;;;21.40;;
21751;SDS011;11038;50.940;20.564;2022-09-20T03:48:19;29.73;;;21.93;;
21751;SDS011;11038;50.940;20.564;2022-09-20T03:52:24;25.73;;;21.07;;
21751;SDS011;11038;50.940;20.564;2022-09-20T04:00:23;26.53;;;20.67;;
21751;SDS011;11038;50.940;20.564;2022-09-20T04:11:16;26.03;;;21.40;;
21751;SDS011;11038;50.940;20.564;2022-09-20T04:13:14;28.07;;;21.43;;
21751;SDS011;11038;50.940;20.564;2022-09-20T04:15:42;27.20;;;21.50;;
21751;SDS011;11038;50.940;20.564;2022-09-20T04:20:31;25.70;;;21.53;;
21751;SDS011;11038;50.940;20.564;2022-09-20T04:22:23;28.37;;;22.77;;
21751;SDS011;11038;50.940;20.564;2022-09-20T04:26:00;26.80;;;21.97;;
21751;SDS011;11038;50.940;20.564;2022-09-20T04:27:47;30.53;;;21.60;;
21751;SDS011;11038;50.940;20.564;2022-09-20T04:31:13;30.47;;;21.60;;
21751;SDS011;11038;50.940;20.564;2022-09-20T04:33:19;30.20;;;21.87;;
21751;SDS011;11038;50.940;20.564;2022-09-20T04:37:43;26.53;;;21.07;;
21751;SDS011;11038;50.940;20.564;2022-09-20T04:39:24;27.03;;;21.33;;
21751;SDS011;11038;50.940;20.564;2022-09-20T04:43:25;27.23;;;21.07;;
21751;SDS011;11038;50.940;20.564;2022-09-20T04:49:25;24.33;;;19.27;;
21751;SDS011;11038;50.940;20.564;2022-09-20T04:55:49;24.93;;;21.53;;
21751;SDS011;11038;50.940;20.564;2022-09-20T05:03:54;25.17;;;19.80;;
21751;SDS011;11038;50.940;20.564;2022-09-20T05:06:09;23.63;;;18.83;;
21751;SDS011;11038;50.940;20.564;2022-09-20T05:14:51;23.50;;;18.73;;
21751;SDS011;11038;50.940;20.564;2022-09-20T05:20:40;22.27;;;18.17;;
21751;SDS011;11038;50.940;20.564;2022-09-20T05:23:21;22.67;;;17.23;;
21751;SDS011;11038;50.940;20.564;2022-09-20T05:31:37;24.37;;;16.70;;
21751;SDS011;11038;50.940;20.564;2022-09-20T05:35:30;22.60;;;17.40;;
21751;SDS011;11038;50.940;20.564;2022-09-20T05:44:30;18.80;;;14.40;;
21751;SDS011;11038;50.940;20.564;2022-09-20T05:48:10;18.57;;;14.13;;
21751;SDS011;11038;50.940;20.564;2022-09-20T06:00:17;17.37;;;13.30;;
21751;SDS011;11038;50.940;20.564;2022-09-20T06:13:40;14.93;;;11.23;;
21751;SDS011;11038;50.940;20.564;2022-09-20T06:15:51;16.37;;;11.67;;
21751;SDS011;11038;50.940;20.564;2022-09-20T06:17:41;18.53;;;10.90;;
21751;SDS011;11038;50.940;20.564;2022-09-20T06:19:31;17.97;;;11.33;;
21751;SDS011;11038;50.940;20.564;2022-09-20T06:23:07;18.47;;;13.30;;
21751;SDS011;11038;50.940;20.564;2022-09-20T06:26:45;20.97;;;13.73;;
21751;SDS011;11038;50.940;20.564;2022-09-20T06:28:24;19.40;;;13.87;;
21751;SDS011;11038;50.940;20.564;2022-09-20T06:30:05;21.93;;;14.03;;
21751;SDS011;11038;50.940;20.564;2022-09-20T06:32:02;18.83;;;14.30;;
21751;SDS011;11038;50.940;20.564;2022-09-20T06:35:49;27.07;;;15.53;;
21751;SDS011;11038;50.940;20.564;2022-09-20T06:37:52;23.77;;;16.00;;
21751;SDS011;11038;50.940;20.564;2022-09-20T06:42:29;22.90;;;15.23;;
21751;SDS011;11038;50.940;20.564;2022-09-20T06:44:01;19.83;;;13.90;;
21751;SDS011;11038;50.940;20.564;2022-09-20T06:45:36;23.00;;;14.80;;
21751;SDS011;11038;50.940;20.564;2022-09-20T06:47:11;24.87;;;14.87;;
21751;SDS011;11038;50.940;20.564;2022-09-20T06:48:45;18.83;;;13.73;;
21751;SDS011;11038;50.940;20.564;2022-09-20T06:50:19;19.57;;;13.83;;
21751;SDS011;11038;50.940;20.564;2022-09-20T06:51:53;19.03;;;13.27;;
21751;SDS011;11038;50.940;20.564;2022-09-20T06:53:27;18.93;;;13.83;;
21751;SDS011;11038;50.940;20.564;2022-09-20T06:55:03;16.90;;;12.37;;
21751;SDS011;11038;50.940;20.564;2022-09-20T06:56:38;18.00;;;12.63;;
21751;SDS011;11038;50.940;20.564;2022-09-20T06:58:10;18.27;;;11.90;;
21751;SDS011;11038;50.940;20.564;2022-09-20T06:59:42;16.20;;;11.67;;
21751;SDS011;11038;50.940;20.564;2022-09-20T07:01:16;16.97;;;12.17;;
21751;SDS011;11038;50.940;20.564;2022-09-20T07:03:00;20.83;;;11.47;;
21751;SDS011;11038;50.940;20.564;2022-09-20T07:04:33;15.37;;;9.60;;
21751;SDS011;11038;50.940;20.564;2022-09-20T07:06:05;14.37;;;10.37;;
21751;SDS011;11038;50.940;20.564;2022-09-20T07:07:39;14.40;;;9.63;;
21751;SDS011;11038;50.940;20.564;2022-09-20T07:09:11;13.37;;;9.47;;
21751;SDS011;11038;50.940;20.564;2022-09-20T07:10:43;13.23;;;10.00;;
21751;SDS011;11038;50.940;20.564;2022-09-20T07:12:15;13.50;;;9.50;;
21751;SDS011;11038;50.940;20.564;2022-09-20T07:13:50;14.07;;;10.20;;
21751;SDS011;11038;50.940;20.564;2022-09-20T07:15:26;14.63;;;9.60;;
21751;SDS011;11038;50.940;20.564;2022-09-20T07:16:59;15.73;;;10.30;;
21751;SDS011;11038;50.940;20.564;2022-09-20T07:18:32;14.43;;;9.40;;
21751;SDS011;11038;50.940;20.564;2022-09-20T07:20:05;13.37;;;8.57;;
21751;SDS011;11038;50.940;20.564;2022-09-20T07:21:37;12.50;;;7.33;;
21751;SDS011;11038;50.940;20.564;2022-09-20T07:23:09;9.60;;;6.20;;
21751;SDS011;11038;50.940;20.564;2022-09-20T07:24:42;8.53;;;5.40;;
21751;SDS011;11038;50.940;20.564;2022-09-20T07:26:17;9.37;;;5.20;;
21751;SDS011;11038;50.940;20.564;2022-09-20T07:27:58;7.63;;;5.10;;
21751;SDS011;11038;50.940;20.564;2022-09-20T07:29:30;7.40;;;5.13;;
21751;SDS011;11038;50.940;20.564;2022-09-20T07:31:05;7.83;;;5.27;;
21751;SDS011;11038;50.940;20.564;2022-09-20T07:32:38;7.90;;;4.53;;
21751;SDS011;11038;50.940;20.564;2022-09-20T07:34:11;9.83;;;4.60;;
21751;SDS011;11038;50.940;20.564;2022-09-20T07:35:44;7.10;;;4.53;;
21751;SDS011;11038;50.940;20.564;2022-09-20T07:37:17;8.53;;;4.83;;
21751;SDS011;11038;50.940;20.564;2022-09-20T07:38:50;7.23;;;4.73;;
21751;SDS011;11038;50.940;20.564;2022-09-20T07:40:23;8.87;;;4.97;;
21751;SDS011;11038;50.940;20.564;2022-09-20T07:41:56;7.60;;;4.97;;
21751;SDS011;11038;50.940;20.564;2022-09-20T07:43:29;7.23;;;4.53;;
21751;SDS011;11038;50.940;20.564;2022-09-20T07:45:02;6.70;;;4.53;;
21751;SDS011;11038;50.940;20.564;2022-09-20T07:46:35;7.10;;;4.70;;
21751;SDS011;11038;50.940;20.564;2022-09-20T07:48:09;7.97;;;4.47;;
21751;SDS011;11038;50.940;20.564;2022-09-20T07:49:42;9.30;;;4.60;;
21751;SDS011;11038;50.940;20.564;2022-09-20T07:51:14;8.40;;;4.67;;
21751;SDS011;11038;50.940;20.564;2022-09-20T07:52:46;8.50;;;5.07;;
21751;SDS011;11038;50.940;20.564;2022-09-20T07:54:19;7.70;;;4.40;;
21751;SDS011;11038;50.940;20.564;2022-09-20T07:56:01;7.43;;;5.13;;
21751;SDS011;11038;50.940;20.564;2022-09-20T07:57:37;7.20;;;4.60;;
21751;SDS011;11038;50.940;20.564;2022-09-20T07:59:10;8.77;;;4.47;;
21751;SDS011;11038;50.940;20.564;2022-09-20T08:00:44;6.37;;;3.80;;
21751;SDS011;11038;50.940;20.564;2022-09-20T08:02:22;6.77;;;3.57;;
21751;SDS011;11038;50.940;20.564;2022-09-20T08:03:54;6.87;;;3.80;;
21751;SDS011;11038;50.940;20.564;2022-09-20T08:05:27;7.87;;;4.00;;
21751;SDS011;11038;50.940;20.564;2022-09-20T08:06:59;6.60;;;4.00;;
21751;SDS011;11038;50.940;20.564;2022-09-20T08:08:32;7.73;;;4.37;;
21751;SDS011;11038;50.940;20.564;2022-09-20T08:10:07;7.53;;;4.40;;
21751;SDS011;11038;50.940;20.564;2022-09-20T08:11:40;9.20;;;4.00;;
21751;SDS011;11038;50.940;20.564;2022-09-20T08:13:14;9.57;;;4.27;;
21751;SDS011;11038;50.940;20.564;2022-09-20T08:15:07;6.37;;;3.87;;
21751;SDS011;11038;50.940;20.564;2022-09-20T08:16:46;6.40;;;4.00;;
21751;SDS011;11038;50.940;20.564;2022-09-20T08:18:20;7.13;;;3.67;;
21751;SDS011;11038;50.940;20.564;2022-09-20T08:19:53;7.30;;;3.77;;
21751;SDS011;11038;50.940;20.564;2022-09-20T08:21:26;6.10;;;4.00;;
21751;SDS011;11038;50.940;20.564;2022-09-20T08:23:02;6.40;;;3.90;;
21751;SDS011;11038;50.940;20.564;2022-09-20T08:24:54;5.80;;;3.30;;
21751;SDS011;11038;50.940;20.564;2022-09-20T08:26:27;6.80;;;3.70;;
21751;SDS011;11038;50.940;20.564;2022-09-20T08:28:01;6.20;;;3.77;;
21751;SDS011;11038;50.940;20.564;2022-09-20T08:29:34;6.43;;;3.97;;
21751;SDS011;11038;50.940;20.564;2022-09-20T08:31:14;7.93;;;3.83;;
21751;SDS011;11038;50.940;20.564;2022-09-20T08:32:49;9.60;;;3.93;;
21751;SDS011;11038;50.940;20.564;2022-09-20T08:34:26;6.30;;;3.87;;
21751;SDS011;11038;50.940;20.564;2022-09-20T08:35:58;7.57;;;3.90;;
21751;SDS011;11038;50.940;20.564;2022-09-20T08:37:31;8.10;;;4.30;;
21751;SDS011;11038;50.940;20.564;2022-09-20T08:39:03;6.37;;;3.80;;
21751;SDS011;11038;50.940;20.564;2022-09-20T08:40:57;6.43;;;4.00;;
21751;SDS011;11038;50.940;20.564;2022-09-20T08:42:37;6.97;;;3.80;;
21751;SDS011;11038;50.940;20.564;2022-09-20T08:44:17;6.57;;;4.03;;
21751;SDS011;11038;50.940;20.564;2022-09-20T08:45:58;8.03;;;4.20;;
21751;SDS011;11038;50.940;20.564;2022-09-20T08:47:37;6.87;;;4.20;;
21751;SDS011;11038;50.940;20.564;2022-09-20T08:49:29;6.83;;;3.97;;
21751;SDS011;11038;50.940;20.564;2022-09-20T08:51:02;6.73;;;3.70;;
21751;SDS011;11038;50.940;20.564;2022-09-20T08:52:38;9.50;;;4.40;;
21751;SDS011;11038;50.940;20.564;2022-09-20T08:54:15;6.57;;;4.40;;
21751;SDS011;11038;50.940;20.564;2022-09-20T08:55:48;7.23;;;3.93;;
21751;SDS011;11038;50.940;20.564;2022-09-20T08:57:20;5.47;;;3.27;;
21751;SDS011;11038;50.940;20.564;2022-09-20T08:58:53;6.63;;;3.87;;
21751;SDS011;11038;50.940;20.564;2022-09-20T09:00:29;7.47;;;3.97;;
21751;SDS011;11038;50.940;20.564;2022-09-20T09:02:07;6.43;;;3.50;;
21751;SDS011;11038;50.940;20.564;2022-09-20T09:03:51;6.30;;;3.90;;
21751;SDS011;11038;50.940;20.564;2022-09-20T09:05:50;5.73;;;3.47;;
21751;SDS011;11038;50.940;20.564;2022-09-20T09:07:29;6.87;;;3.40;;
21751;SDS011;11038;50.940;20.564;2022-09-20T09:09:02;5.73;;;3.40;;
21751;SDS011;11038;50.940;20.564;2022-09-20T09:10:36;8.97;;;4.17;;
21751;SDS011;11038;50.940;20.564;2022-09-20T09:12:15;6.27;;;3.17;;
21751;SDS011;11038;50.940;20.564;2022-09-20T09:16:07;6.20;;;3.30;;
21751;SDS011;11038;50.940;20.564;2022-09-20T09:17:53;5.73;;;3.30;;
21751;SDS011;11038;50.940;20.564;2022-09-20T09:19:26;6.47;;;3.43;;
21751;SDS011;11038;50.940;20.564;2022-09-20T09:21:05;6.07;;;3.53;;
21751;SDS011;11038;50.940;20.564;2022-09-20T09:22:41;8.00;;;3.93;;
21751;SDS011;11038;50.940;20.564;2022-09-20T09:24:16;6.83;;;3.60;;
21751;SDS011;11038;50.940;20.564;2022-09-20T09:25:52;6.17;;;3.73;;
21751;SDS011;11038;50.940;20.564;2022-09-20T09:27:25;9.47;;;4.00;;
21751;SDS011;11038;50.940;20.564;2022-09-20T09:30:56;5.63;;;3.27;;
21751;SDS011;11038;50.940;20.564;2022-09-20T09:35:19;6.97;;;3.90;;
21751;SDS011;11038;50.940;20.564;2022-09-20T09:37:02;6.53;;;3.50;;
21751;SDS011;11038;50.940;20.564;2022-09-20T09:38:36;7.63;;;2.97;;
21751;SDS011;11038;50.940;20.564;2022-09-20T09:40:14;6.50;;;3.30;;
21751;SDS011;11038;50.940;20.564;2022-09-20T09:41:49;5.87;;;3.20;;
21751;SDS011;11038;50.940;20.564;2022-09-20T09:43:24;7.03;;;2.93;;
21751;SDS011;11038;50.940;20.564;2022-09-20T09:45:23;7.20;;;2.80;;
21751;SDS011;11038;50.940;20.564;2022-09-20T09:46:57;6.17;;;3.30;;
21751;SDS011;11038;50.940;20.564;2022-09-20T09:48:30;6.93;;;3.43;;
21751;SDS011;11038;50.940;20.564;2022-09-20T09:50:02;7.27;;;3.13;;
21751;SDS011;11038;50.940;20.564;2022-09-20T09:51:41;7.70;;;3.30;;
21751;SDS011;11038;50.940;20.564;2022-09-20T09:53:36;6.10;;;3.13;;
21751;SDS011;11038;50.940;20.564;2022-09-20T09:55:11;4.50;;;2.90;;
21751;SDS011;11038;50.940;20.564;2022-09-20T09:58:42;7.43;;;3.30;;
21751;SDS011;11038;50.940;20.564;2022-09-20T10:00:44;5.77;;;3.27;;
21751;SDS011;11038;50.940;20.564;2022-09-20T10:10:42;6.83;;;3.80;;
21751;SDS011;11038;50.940;20.564;2022-09-20T10:15:05;8.40;;;4.33;;
21751;SDS011;11038;50.940;20.564;2022-09-20T10:17:18;7.97;;;4.10;;
21751;SDS011;11038;50.940;20.564;2022-09-20T10:21:26;7.47;;;4.00;;
21751;SDS011;11038;50.940;20.564;2022-09-20T10:34:15;10.87;;;4.30;;
21751;SDS011;11038;50.940;20.564;2022-09-20T10:36:34;9.57;;;4.67;;
21751;SDS011;11038;50.940;20.564;2022-09-20T10:38:29;7.60;;;4.50;;
21751;SDS011;11038;50.940;20.564;2022-09-20T10:58:00;8.50;;;4.23;;
21751;SDS011;11038;50.940;20.564;2022-09-20T11:09:46;8.23;;;4.03;;
21751;SDS011;11038;50.940;20.564;2022-09-20T11:12:10;7.93;;;4.37;;
21751;SDS011;11038;50.940;20.564;2022-09-20T11:13:47;6.33;;;3.73;;
21751;SDS011;11038;50.940;20.564;2022-09-20T11:15:39;6.37;;;4.10;;
21751;SDS011;11038;50.940;20.564;2022-09-20T11:17:19;7.20;;;4.10;;
21751;SDS011;11038;50.940;20.564;2022-09-20T11:23:00;7.77;;;4.33;;
21751;SDS011;11038;50.940;20.564;2022-09-20T11:25:01;6.80;;;3.70;;
21751;SDS011;11038;50.940;20.564;2022-09-20T11:27:05;7.37;;;4.20;;
21751;SDS011;11038;50.940;20.564;2022-09-20T11:28:51;5.83;;;3.50;;
21751;SDS011;11038;50.940;20.564;2022-09-20T11:36:30;7.97;;;3.37;;
21751;SDS011;11038;50.940;20.564;2022-09-20T11:38:36;6.33;;;3.10;;
21751;SDS011;11038;50.940;20.564;2022-09-20T11:40:33;5.77;;;3.40;;
21751;SDS011;11038;50.940;20.564;2022-09-20T11:42:17;7.77;;;4.20;;
21751;SDS011;11038;50.940;20.564;2022-09-20T11:44:00;6.37;;;3.70;;
21751;SDS011;11038;50.940;20.564;2022-09-20T11:45:41;7.23;;;3.97;;
21751;SDS011;11038;50.940;20.564;2022-09-20T11:56:29;7.23;;;4.23;;
21751;SDS011;11038;50.940;20.564;2022-09-20T11:58:25;5.80;;;3.50;;
21751;SDS011;11038;50.940;20.564;2022-09-20T11:59:56;7.73;;;4.67;;
21751;SDS011;11038;50.940;20.564;2022-09-20T12:01:38;6.87;;;3.80;;
21751;SDS011;11038;50.940;20.564;2022-09-20T12:03:29;8.97;;;3.90;;
21751;SDS011;11038;50.940;20.564;2022-09-20T12:11:12;9.07;;;3.40;;
21751;SDS011;11038;50.940;20.564;2022-09-20T12:12:47;5.50;;;3.10;;
21751;SDS011;11038;50.940;20.564;2022-09-20T12:14:28;8.27;;;3.40;;
21751;SDS011;11038;50.940;20.564;2022-09-20T12:21:08;5.70;;;2.87;;
21751;SDS011;11038;50.940;20.564;2022-09-20T12:22:47;6.80;;;3.37;;
21751;SDS011;11038;50.940;20.564;2022-09-20T12:24:19;6.77;;;3.13;;
21751;SDS011;11038;50.940;20.564;2022-09-20T12:26:00;7.40;;;3.60;;
21751;SDS011;11038;50.940;20.564;2022-09-20T12:28:11;7.73;;;3.60;;
21751;SDS011;11038;50.940;20.564;2022-09-20T12:33:17;6.00;;;3.60;;
21751;SDS011;11038;50.940;20.564;2022-09-20T12:34:52;5.53;;;3.23;;
21751;SDS011;11038;50.940;20.564;2022-09-20T12:36:29;6.00;;;3.43;;
21751;SDS011;11038;50.940;20.564;2022-09-20T12:38:21;8.37;;;3.33;;
21751;SDS011;11038;50.940;20.564;2022-09-20T12:40:02;5.80;;;3.20;;
21751;SDS011;11038;50.940;20.564;2022-09-20T12:43:27;5.20;;;2.70;;
21751;SDS011;11038;50.940;20.564;2022-09-20T12:45:04;6.60;;;3.27;;
21751;SDS011;11038;50.940;20.564;2022-09-20T12:47:31;7.77;;;3.17;;
21751;SDS011;11038;50.940;20.564;2022-09-20T12:48:43;4.83;;;2.80;;
21751;SDS011;11038;50.940;20.564;2022-09-20T12:50:15;7.80;;;3.33;;
21751;SDS011;11038;50.940;20.564;2022-09-20T12:54:28;7.60;;;3.20;;
21751;SDS011;11038;50.940;20.564;2022-09-20T12:57:32;5.73;;;3.23;;
21751;SDS011;11038;50.940;20.564;2022-09-20T12:59:22;5.60;;;3.30;;
21751;SDS011;11038;50.940;20.564;2022-09-20T13:02:40;5.83;;;2.67;;
21751;SDS011;11038;50.940;20.564;2022-09-20T13:05:28;5.13;;;2.90;;
21751;SDS011;11038;50.940;20.564;2022-09-20T13:06:26;6.83;;;3.47;;
21751;SDS011;11038;50.940;20.564;2022-09-20T13:08:03;5.63;;;3.10;;
21751;SDS011;11038;50.940;20.564;2022-09-20T13:09:51;6.00;;;3.00;;
21751;SDS011;11038;50.940;20.564;2022-09-20T13:13:30;7.53;;;3.00;;
21751;SDS011;11038;50.940;20.564;2022-09-20T13:15:25;5.93;;;2.90;;
21751;SDS011;11038;50.940;20.564;2022-09-20T13:18:37;6.47;;;2.87;;
21751;SDS011;11038;50.940;20.564;2022-09-20T13:20:24;6.30;;;3.30;;
21751;SDS011;11038;50.940;20.564;2022-09-20T13:22:05;7.17;;;3.20;;
21751;SDS011;11038;50.940;20.564;2022-09-20T13:23:49;8.73;;;3.40;;
21751;SDS011;11038;50.940;20.564;2022-09-20T13:25:24;5.87;;;3.17;;
21751;SDS011;11038;50.940;20.564;2022-09-20T13:27:00;4.67;;;2.77;;
21751;SDS011;11038;50.940;20.564;2022-09-20T13:28:43;7.53;;;3.07;;
21751;SDS011;11038;50.940;20.564;2022-09-20T13:30:24;5.57;;;3.10;;
21751;SDS011;11038;50.940;20.564;2022-09-20T13:34:13;5.40;;;2.90;;
21751;SDS011;11038;50.940;20.564;2022-09-20T13:35:53;5.27;;;2.90;;
21751;SDS011;11038;50.940;20.564;2022-09-20T13:37:29;5.80;;;3.10;;
21751;SDS011;11038;50.940;20.564;2022-09-20T13:39:01;6.93;;;2.93;;
21751;SDS011;11038;50.940;20.564;2022-09-20T13:40:38;8.57;;;3.07;;
21751;SDS011;11038;50.940;20.564;2022-09-20T13:42:15;8.00;;;2.63;;
21751;SDS011;11038;50.940;20.564;2022-09-20T13:43:52;6.23;;;3.17;;
21751;SDS011;11038;50.940;20.564;2022-09-20T13:45:24;4.57;;;2.30;;
21751;SDS011;11038;50.940;20.564;2022-09-20T13:47:05;6.93;;;3.13;;
21751;SDS011;11038;50.940;20.564;2022-09-20T13:50:54;4.80;;;2.73;;
21751;SDS011;11038;50.940;20.564;2022-09-20T13:52:29;4.67;;;2.70;;
21751;SDS011;11038;50.940;20.564;2022-09-20T13:54:45;6.97;;;2.80;;
21751;SDS011;11038;50.940;20.564;2022-09-20T13:56:07;4.77;;;2.50;;
21751;SDS011;11038;50.940;20.564;2022-09-20T13:58:23;6.33;;;2.80;;
21751;SDS011;11038;50.940;20.564;2022-09-20T13:59:58;5.30;;;2.50;;
21751;SDS011;11038;50.940;20.564;2022-09-20T14:01:35;5.10;;;2.53;;
21751;SDS011;11038;50.940;20.564;2022-09-20T14:03:11;4.30;;;2.20;;
21751;SDS011;11038;50.940;20.564;2022-09-20T14:04:51;5.23;;;2.90;;
21751;SDS011;11038;50.940;20.564;2022-09-20T14:06:27;4.83;;;2.60;;
21751;SDS011;11038;50.940;20.564;2022-09-20T14:08:00;6.20;;;3.03;;
21751;SDS011;11038;50.940;20.564;2022-09-20T14:09:34;4.23;;;2.50;;
21751;SDS011;11038;50.940;20.564;2022-09-20T14:11:14;6.57;;;2.60;;
21751;SDS011;11038;50.940;20.564;2022-09-20T14:13:05;5.57;;;3.00;;
21751;SDS011;11038;50.940;20.564;2022-09-20T14:14:42;6.00;;;2.63;;
21751;SDS011;11038;50.940;20.564;2022-09-20T14:16:19;4.97;;;2.80;;
21751;SDS011;11038;50.940;20.564;2022-09-20T14:17:54;4.90;;;2.80;;
21751;SDS011;11038;50.940;20.564;2022-09-20T14:19:29;4.53;;;2.60;;
21751;SDS011;11038;50.940;20.564;2022-09-20T14:21:08;7.50;;;3.00;;
21751;SDS011;11038;50.940;20.564;2022-09-20T14:22:42;8.13;;;3.37;;
21751;SDS011;11038;50.940;20.564;2022-09-20T14:26:34;13.57;;;6.37;;
21751;SDS011;11038;50.940;20.564;2022-09-20T14:27:46;12.93;;;4.97;;
21751;SDS011;11038;50.940;20.564;2022-09-20T14:32:50;6.93;;;3.43;;
21751;SDS011;11038;50.940;20.564;2022-09-20T14:34:26;6.23;;;3.80;;
21751;SDS011;11038;50.940;20.564;2022-09-20T14:35:59;5.90;;;3.50;;
21751;SDS011;11038;50.940;20.564;2022-09-20T14:39:22;4.83;;;3.03;;
21751;SDS011;11038;50.940;20.564;2022-09-20T14:40:54;7.87;;;3.50;;
21751;SDS011;11038;50.940;20.564;2022-09-20T14:42:33;5.90;;;3.40;;
21751;SDS011;11038;50.940;20.564;2022-09-20T14:44:28;6.00;;;3.30;;
21751;SDS011;11038;50.940;20.564;2022-09-20T14:46:04;5.83;;;3.23;;
21751;SDS011;11038;50.940;20.564;2022-09-20T14:54:55;8.57;;;3.33;;
21751;SDS011;11038;50.940;20.564;2022-09-20T14:56:46;6.73;;;3.80;;
21751;SDS011;11038;50.940;20.564;2022-09-20T14:58:21;6.03;;;3.70;;
21751;SDS011;11038;50.940;20.564;2022-09-20T14:59:55;6.53;;;3.73;;
21751;SDS011;11038;50.940;20.564;2022-09-20T15:01:27;6.67;;;4.03;;
21751;SDS011;11038;50.940;20.564;2022-09-20T15:03:03;6.33;;;3.93;;
21751;SDS011;11038;50.940;20.564;2022-09-20T15:04:50;9.60;;;6.40;;
21751;SDS011;11038;50.940;20.564;2022-09-20T15:06:30;23.20;;;17.27;;